createdAt,value
2018-01-04T00:02:04.173Z,98659.86
2018-01-04T00:04:30.578Z,98658.48
2018-01-04T00:06:57.016Z,98659.02
2018-01-04T00:09:23.448Z,98657.22
2018-01-04T00:11:49.855Z,98652.77
2018-01-04T00:14:16.255Z,98651.09
2018-01-04T00:16:42.686Z,98654.75
2018-01-04T00:19:09.138Z,98656.78
2018-01-04T00:21:35.727Z,98657.45
2018-01-04T00:24:02.176Z,98659.98
2018-01-04T00:26:28.544Z,98676.38
2018-01-04T00:28:55.128Z,98678.26
2018-01-04T00:31:21.529Z,98680.73
2018-01-04T00:33:48.015Z,98682.49
2018-01-04T00:36:14.464Z,98684.32
2018-01-04T00:38:41.020Z,98691.16
2018-01-04T00:41:07.449Z,98691.75
2018-01-04T00:43:33.905Z,98695.38
2018-01-04T00:46:00.389Z,98703.38
2018-01-04T00:48:26.829Z,98701.19
2018-01-04T00:50:53.337Z,98700.88
2018-01-04T00:53:19.774Z,98709.50
2018-01-04T00:55:46.224Z,98711.02
2018-01-04T00:58:12.678Z,98709.94
2018-01-04T01:00:39.199Z,98712.20
2018-01-04T01:03:05.644Z,98712.87
2018-01-04T01:05:32.088Z,98705.37
2018-01-04T01:07:58.616Z,98700.97
2018-01-04T01:10:25.093Z,98703.18
2018-01-04T01:12:51.589Z,98699.30
2018-01-04T01:15:18.077Z,98688.00
2018-01-04T01:17:44.464Z,98681.59
2018-01-04T01:20:10.893Z,98678.01
2018-01-04T01:22:37.377Z,98686.59
2018-01-04T01:25:03.839Z,98681.42
2018-01-04T01:27:30.273Z,98679.06
2018-01-04T01:29:56.800Z,98678.55
2018-01-04T01:32:23.261Z,98678.22
2018-01-04T01:34:49.677Z,98669.85
2018-01-04T01:37:16.128Z,98667.66
2018-01-04T01:39:42.533Z,98668.97
2018-01-04T01:42:08.984Z,98663.80
2018-01-04T01:44:35.553Z,98662.25
2018-01-04T01:47:02.022Z,98664.08
2018-01-04T01:49:28.447Z,98662.25
2018-01-04T01:51:54.851Z,98659.17
2018-01-04T01:54:21.267Z,98660.07
2018-01-04T01:56:47.639Z,98656.52
2018-01-04T01:59:14.093Z,98655.98
2018-01-04T02:01:40.449Z,98656.91
2018-01-04T02:04:06.904Z,98655.56
2018-01-04T02:06:33.371Z,98655.75
2018-01-04T02:08:59.784Z,98650.31
2018-01-04T02:11:26.188Z,98656.17
2018-01-04T02:13:52.664Z,98655.25
2018-01-04T02:16:21.896Z,98656.02
2018-01-04T02:19:00.557Z,98664.59
2018-01-04T02:21:39.102Z,98657.74
2018-01-04T02:24:17.808Z,98654.98
2018-01-04T02:26:56.307Z,98660.86
2018-01-04T02:29:35.022Z,98648.84
2018-01-04T02:32:13.545Z,98655.55
2018-01-04T02:34:52.181Z,98650.97
2018-01-04T02:37:30.893Z,98646.00
2018-01-04T02:40:09.453Z,98639.02
2018-01-04T02:42:47.989Z,98633.11
2018-01-04T02:45:26.554Z,98632.95
2018-01-04T02:47:52.862Z,98634.09
2018-01-04T02:50:19.201Z,98639.24
2018-01-04T02:52:45.533Z,98645.98
2018-01-04T02:55:11.857Z,98647.88
2018-01-04T02:57:38.157Z,98653.20
2018-01-04T03:00:04.776Z,98652.42
2018-01-04T03:02:31.291Z,98653.72
2018-01-04T03:04:57.605Z,98653.58
2018-01-04T03:07:23.972Z,98649.33
2018-01-04T03:09:50.256Z,98644.19
2018-01-04T03:12:16.575Z,98649.41
2018-01-04T03:14:42.876Z,98650.90
2018-01-04T03:17:09.165Z,98654.98
2018-01-04T03:19:35.527Z,98656.87
2018-01-04T03:22:07.691Z,98649.09
2018-01-04T03:24:39.905Z,98645.59
2018-01-04T03:27:12.091Z,98645.86
2018-01-04T03:29:38.435Z,98653.02
2018-01-04T03:32:10.687Z,98654.78
2018-01-04T03:34:42.930Z,98651.60
2018-01-04T03:37:15.240Z,98650.14
2018-01-04T03:39:41.562Z,98649.56
2018-01-04T03:42:13.751Z,98645.91
2018-01-04T03:58:02.747Z,98656.37
2018-01-04T04:00:34.939Z,98653.10
2018-01-04T04:03:01.183Z,98647.68
2018-01-04T04:05:33.605Z,98647.29
2018-01-04T04:08:05.909Z,98650.52
2018-01-04T04:10:32.174Z,98655.34
2018-01-04T04:12:58.511Z,98650.39
2018-01-04T04:15:24.815Z,98645.59
2018-01-04T04:17:51.071Z,98644.73
2018-01-04T04:20:17.416Z,98639.02
2018-01-04T04:22:43.688Z,98644.33
2018-01-04T04:25:09.911Z,98640.77
2018-01-04T04:27:36.295Z,98647.84
2018-01-04T04:30:02.612Z,98643.59
2018-01-04T04:32:28.880Z,98646.06
2018-01-04T04:34:55.333Z,98655.17
2018-01-04T04:37:21.599Z,98651.91
2018-01-04T04:39:47.852Z,98652.77
2018-01-04T04:42:14.182Z,98651.52
2018-01-04T04:44:40.551Z,98650.22
2018-01-04T04:47:06.844Z,98647.78
2018-01-04T04:49:33.115Z,98641.08
2018-01-04T04:51:59.466Z,98638.61
2018-01-04T04:54:25.752Z,98638.04
2018-01-04T04:56:52.092Z,98639.92
2018-01-04T04:59:18.376Z,98637.62
2018-01-04T05:01:44.637Z,98644.31
2018-01-04T05:04:10.923Z,98647.51
2018-01-04T05:06:37.240Z,98640.62
2018-01-04T05:09:03.534Z,98643.45
2018-01-04T05:11:29.844Z,98644.08
2018-01-04T05:13:56.077Z,98642.33
2018-01-04T05:16:22.295Z,98639.69
2018-01-04T05:18:48.612Z,98639.05
2018-01-04T05:21:14.863Z,98636.34
2018-01-04T05:23:41.144Z,98629.78
2018-01-04T05:26:07.495Z,98632.70
2018-01-04T05:28:33.780Z,98639.56
2018-01-04T05:31:00.052Z,98648.48
2018-01-04T05:33:26.410Z,98646.75
2018-01-04T05:35:52.649Z,98652.42
2018-01-04T05:38:18.915Z,98655.73
2018-01-04T05:40:45.295Z,98653.63
2018-01-04T05:43:11.580Z,98650.56
2018-01-04T05:45:37.836Z,98651.15
2018-01-04T05:48:04.092Z,98659.00
2018-01-04T05:50:30.324Z,98650.59
2018-01-04T05:52:56.566Z,98657.72
2018-01-04T05:55:22.950Z,98657.87
2018-01-04T05:57:49.548Z,98662.44
2018-01-04T06:00:15.801Z,98666.48
2018-01-04T06:02:42.154Z,98663.15
2018-01-04T06:05:08.444Z,98661.96
2018-01-04T06:07:38.915Z,98655.19
2018-01-04T06:10:05.337Z,98658.08
2018-01-04T06:12:31.616Z,98660.28
2018-01-04T06:14:57.951Z,98665.40
2018-01-04T06:17:24.279Z,98662.84
2018-01-04T06:19:50.516Z,98661.13
2018-01-04T06:22:16.908Z,98655.02
2018-01-04T06:24:43.237Z,98663.34
2018-01-04T06:27:09.516Z,98662.05
2018-01-04T06:29:35.763Z,98657.02
2018-01-04T06:32:02.060Z,98664.04
2018-01-04T06:34:28.291Z,98667.64
2018-01-04T06:36:54.601Z,98670.53
2018-01-04T06:39:20.908Z,98666.29
2018-01-04T06:41:47.156Z,98665.66
2018-01-04T06:44:13.611Z,98665.98
2018-01-04T06:46:39.896Z,98675.45
2018-01-04T06:49:06.200Z,98681.95
2018-01-04T06:51:32.528Z,98681.89
2018-01-04T06:53:58.807Z,98694.06
2018-01-04T06:56:25.292Z,98688.70
2018-01-04T06:58:51.582Z,98689.22
2018-01-04T07:01:17.890Z,98692.81
2018-01-04T07:03:44.125Z,98692.20
2018-01-04T07:06:10.384Z,98702.30
2018-01-04T07:08:36.659Z,98707.92
2018-01-04T07:11:02.987Z,98711.17
2018-01-04T07:13:29.238Z,98706.73
2018-01-04T07:15:55.534Z,98707.34
2018-01-04T07:18:21.868Z,98713.87
2018-01-04T07:20:48.164Z,98720.76
2018-01-04T07:23:14.471Z,98715.06
2018-01-04T07:25:41.088Z,98715.71
2018-01-04T07:28:07.335Z,98717.92
2018-01-04T07:30:33.668Z,98715.48
2018-01-04T07:33:00.029Z,98721.11
2018-01-04T07:35:26.357Z,98724.62
2018-01-04T07:37:52.686Z,98730.41
2018-01-04T07:40:18.971Z,98726.05
2018-01-04T07:42:45.572Z,98731.61
2018-01-04T07:45:12.089Z,98735.37
2018-01-04T07:47:38.543Z,98734.36
2018-01-04T07:50:04.943Z,98740.55
2018-01-04T07:52:31.475Z,98746.88
2018-01-04T07:54:58.005Z,98745.34
2018-01-04T07:57:24.475Z,98753.83
2018-01-04T07:59:51.123Z,98750.25
2018-01-04T08:02:17.504Z,98756.42
2018-01-04T08:04:44.076Z,98759.34
2018-01-04T08:07:10.535Z,98754.12
2018-01-04T08:09:36.907Z,98757.47
2018-01-04T08:12:03.285Z,98763.41
2018-01-04T08:14:29.804Z,98766.30
2018-01-04T08:16:56.200Z,98766.87
2018-01-04T08:19:22.615Z,98768.27
2018-01-04T08:21:49.047Z,98768.19
2018-01-04T08:24:15.498Z,98771.55
2018-01-04T08:26:41.835Z,98767.83
2018-01-04T08:29:08.364Z,98774.85
2018-01-04T08:31:34.776Z,98765.45
2018-01-04T08:34:01.116Z,98769.59
2018-01-04T08:36:27.620Z,98768.89
2018-01-04T08:38:54.092Z,98766.16
2018-01-04T08:41:20.463Z,98772.30
2018-01-04T08:43:46.931Z,98767.77
2018-01-04T08:46:13.304Z,98777.97
2018-01-04T08:48:39.711Z,98771.77
2018-01-04T08:51:06.122Z,98762.78
2018-01-04T08:53:32.651Z,98762.83
2018-01-04T08:55:59.052Z,98765.59
2018-01-04T08:58:25.524Z,98756.46
2018-01-04T09:00:52.026Z,98757.89
2018-01-04T09:03:18.433Z,98759.72
2018-01-04T09:05:44.835Z,98757.21
2018-01-04T09:08:11.218Z,98747.25
2018-01-04T09:10:37.583Z,98753.17
2018-01-04T09:13:04.260Z,98747.83
2018-01-04T09:15:30.611Z,98748.37
2018-01-04T09:17:57.040Z,98747.25
2018-01-04T09:20:23.531Z,98745.66
2018-01-04T09:22:49.996Z,98745.02
2018-01-04T09:25:16.396Z,98744.78
2018-01-04T09:27:42.827Z,98744.15
2018-01-04T09:30:09.213Z,98735.82
2018-01-04T09:32:35.735Z,98740.39
2018-01-04T09:35:02.189Z,98735.05
2018-01-04T09:37:28.589Z,98738.81
2018-01-04T09:39:54.960Z,98733.94
2018-01-04T09:42:21.442Z,98743.25
2018-01-04T09:44:47.826Z,98741.81
2018-01-04T09:47:14.271Z,98744.80
2018-01-04T09:49:40.740Z,98742.03
2018-01-04T09:52:07.172Z,98744.88
2018-01-04T09:54:33.572Z,98744.88
2018-01-04T09:57:00.003Z,98747.11
2018-01-04T09:59:26.414Z,98737.56
2018-01-04T10:01:52.840Z,98734.39
2018-01-04T10:04:19.272Z,98734.20
2018-01-04T10:06:45.908Z,98733.16
2018-01-04T10:09:12.344Z,98734.77
2018-01-04T10:11:38.768Z,98740.00
2018-01-04T10:14:05.148Z,98737.16
2018-01-04T10:16:31.569Z,98739.52
2018-01-04T10:18:58.028Z,98734.45
2018-01-04T10:21:24.608Z,98739.32
2018-01-04T10:23:51.060Z,98741.59
2018-01-04T10:26:17.824Z,98744.86
2018-01-04T10:28:44.247Z,98742.48
2018-01-04T10:31:10.654Z,98733.41
2018-01-04T10:33:37.071Z,98736.78
2018-01-04T10:36:03.750Z,98741.09
2018-01-04T10:38:30.250Z,98738.89
2018-01-04T10:40:56.728Z,98738.41
2018-01-04T10:43:23.181Z,98735.40
2018-01-04T10:45:49.724Z,98735.89
2018-01-04T10:48:16.180Z,98733.89
2018-01-04T10:50:42.594Z,98733.94
2018-01-04T10:53:09.008Z,98732.17
2018-01-04T10:55:35.591Z,98719.64
2018-01-04T10:58:02.047Z,98712.37
2018-01-04T11:00:28.525Z,98716.50
2018-01-04T11:02:55.153Z,98705.02
2018-01-04T11:05:21.619Z,98703.72
2018-01-04T11:07:48.029Z,98705.34
2018-01-04T11:10:14.512Z,98713.03
2018-01-04T11:12:40.940Z,98703.59
2018-01-04T11:15:07.372Z,98705.03
2018-01-04T11:17:33.847Z,98701.41
2018-01-04T11:20:00.247Z,98706.30
2018-01-04T11:22:26.739Z,98705.41
2018-01-04T11:24:53.216Z,98704.43
2018-01-04T11:27:19.708Z,98710.23
2018-01-04T11:29:46.360Z,98710.55
2018-01-04T11:32:12.796Z,98704.23
2018-01-04T11:34:39.413Z,98710.74
2018-01-04T11:37:05.836Z,98709.82
2018-01-04T11:39:32.296Z,98705.87
2018-01-04T11:41:58.780Z,98703.69
2018-01-04T11:44:25.163Z,98700.89
2018-01-04T11:46:51.748Z,98698.52
2018-01-04T11:49:18.149Z,98704.45
2018-01-04T11:51:44.557Z,98699.10
2018-01-04T11:54:10.997Z,98700.89
2018-01-04T11:56:37.379Z,98704.66
2018-01-04T11:59:03.851Z,98706.05
2018-01-04T12:01:30.558Z,98711.87
2018-01-04T12:03:56.935Z,98706.85
2018-01-04T12:06:23.346Z,98707.39
2018-01-04T12:08:49.832Z,98707.98
2018-01-04T12:11:16.235Z,98706.27
2018-01-04T12:13:42.634Z,98704.87
2018-01-04T12:16:09.132Z,98705.20
2018-01-04T12:18:35.536Z,98711.33
2018-01-04T12:21:01.944Z,98712.19
2018-01-04T12:23:28.379Z,98715.23
2018-01-04T12:25:54.944Z,98714.23
2018-01-04T12:28:21.348Z,98712.64
2018-01-04T12:30:47.827Z,98714.78
2018-01-04T12:33:14.241Z,98714.68
2018-01-04T12:35:40.779Z,98714.33
2018-01-04T12:38:07.271Z,98708.69
2018-01-04T12:40:33.728Z,98716.02
2018-01-04T12:43:00.175Z,98719.09
2018-01-04T12:45:26.610Z,98716.31
2018-01-04T12:47:53.054Z,98719.75
2018-01-04T12:50:19.603Z,98717.08
2018-01-04T12:52:46.007Z,98717.50
2018-01-04T12:55:12.964Z,98720.19
2018-01-04T12:57:39.568Z,98723.93
2018-01-04T13:00:05.998Z,98724.88
2018-01-04T13:02:32.559Z,98718.91
2018-01-04T13:04:58.987Z,98722.12
2018-01-04T13:07:25.438Z,98725.70
2018-01-04T13:09:51.893Z,98732.42
2018-01-04T13:12:18.319Z,98730.82
2018-01-04T13:14:44.732Z,98729.97
2018-01-04T13:17:11.272Z,98740.12
2018-01-04T13:19:37.685Z,98736.36
2018-01-04T13:22:04.159Z,98745.91
2018-01-04T13:24:30.619Z,98749.34
2018-01-04T13:26:57.038Z,98756.26
2018-01-04T13:29:23.455Z,98756.78
2018-01-04T13:44:55.521Z,98765.97
2018-01-04T13:47:21.879Z,98762.50
2018-01-04T13:49:48.411Z,98763.95
2018-01-04T13:52:14.862Z,98763.78
2018-01-04T13:54:41.389Z,98766.36
2018-01-04T13:57:07.824Z,98769.34
2018-01-04T13:59:34.341Z,98771.83
2018-01-04T14:02:00.828Z,98774.85
2018-01-04T14:04:27.518Z,98781.47
2018-01-04T14:06:54.019Z,98780.70
2018-01-04T14:09:20.480Z,98784.62
2018-01-04T14:11:46.895Z,98784.27
2018-01-04T14:14:13.594Z,98786.36
2018-01-04T14:16:40.074Z,98795.59
2018-01-04T14:19:06.469Z,98794.74
2018-01-04T14:21:32.883Z,98799.77
2018-01-04T14:23:59.308Z,98801.02
2018-01-04T14:26:25.661Z,98800.84
2018-01-04T14:28:52.104Z,98810.67
2018-01-04T14:31:18.516Z,98808.05
2018-01-04T14:33:44.916Z,98819.54
2018-01-04T14:36:11.730Z,98820.06
2018-01-04T14:38:38.108Z,98819.45
2018-01-04T14:41:04.492Z,98822.73
2018-01-04T14:43:30.957Z,98826.55
2018-01-04T14:45:57.352Z,98823.59
2018-01-04T14:48:23.736Z,98827.91
2018-01-04T14:50:50.232Z,98827.95
2018-01-04T14:53:17.020Z,98829.38
2018-01-04T14:55:44.046Z,98836.58
2018-01-04T14:58:10.767Z,98829.17
2018-01-04T15:00:37.413Z,98840.87
2018-01-04T15:03:03.865Z,98838.92
2018-01-04T15:05:30.263Z,98841.14
2018-01-04T15:07:56.644Z,98842.55
2018-01-04T15:10:23.079Z,98843.47
2018-01-04T15:12:49.721Z,98852.14
2018-01-04T15:15:16.113Z,98849.70
2018-01-04T15:17:42.535Z,98847.81
2018-01-04T15:20:09.051Z,98851.75
2018-01-04T15:22:35.468Z,98856.31
2018-01-04T15:25:01.894Z,98857.39
2018-01-04T15:27:28.321Z,98850.66
2018-01-04T15:29:54.713Z,98858.17
2018-01-04T15:32:21.125Z,98860.98
2018-01-04T15:34:47.599Z,98862.14
2018-01-04T15:37:14.011Z,98866.88
2018-01-04T15:39:40.441Z,98863.96
2018-01-04T15:42:06.963Z,98867.31
2018-01-04T15:44:33.426Z,98873.19
2018-01-04T15:46:59.962Z,98873.65
2018-01-04T15:49:26.396Z,98880.95
2018-01-04T15:51:52.772Z,98879.13
2018-01-04T15:54:19.264Z,98891.22
2018-01-04T15:56:45.695Z,98884.12
2018-01-04T15:59:12.202Z,98891.03
2018-01-04T16:01:38.599Z,98884.55
2018-01-04T16:04:05.144Z,98891.13
2018-01-04T16:06:31.771Z,98900.07
2018-01-04T16:08:58.170Z,98901.41
2018-01-04T16:11:24.636Z,98905.08
2018-01-04T16:13:51.056Z,98905.75
2018-01-04T16:16:17.504Z,98917.35
2018-01-04T16:18:43.977Z,98917.20
2018-01-04T16:21:10.368Z,98928.66
2018-01-04T16:23:37.005Z,98924.06
2018-01-04T16:26:03.496Z,98906.23
2018-01-04T16:28:31.015Z,98922.40
2018-01-04T16:30:57.460Z,98915.95
2018-01-04T16:33:23.868Z,98933.06
2018-01-04T16:35:50.252Z,98934.16
2018-01-04T16:38:16.751Z,98933.42
2018-01-04T16:40:43.195Z,98933.86
2018-01-04T16:43:09.684Z,98938.83
2018-01-04T16:45:36.116Z,98942.06
2018-01-04T16:48:03.033Z,98943.98
2018-01-04T16:50:29.485Z,98944.94
2018-01-04T16:52:55.895Z,98951.66
2018-01-04T16:55:22.331Z,98950.98
2018-01-04T16:57:48.765Z,98956.89
2018-01-04T17:00:16.295Z,98960.36
2018-01-04T17:02:42.777Z,98957.64
2018-01-04T17:05:10.653Z,98957.73
2018-01-04T17:07:37.177Z,98957.70
2018-01-04T17:10:03.713Z,98957.45
2018-01-04T17:12:30.145Z,98958.20
2018-01-04T17:14:56.579Z,98960.31
2018-01-04T17:17:23.181Z,98966.69
2018-01-04T17:19:49.608Z,98975.39
2018-01-04T17:22:16.066Z,98975.73
2018-01-04T17:24:42.521Z,98974.77
2018-01-04T17:27:08.951Z,98979.00
2018-01-04T17:29:35.388Z,98980.34
2018-01-04T17:32:02.466Z,98985.30
2018-01-04T17:34:28.915Z,98988.78
2018-01-04T17:36:55.344Z,98991.58
2018-01-04T17:39:21.827Z,98989.72
2018-01-04T17:41:48.236Z,98985.12
2018-01-04T17:44:14.633Z,98994.47
2018-01-04T17:46:41.187Z,98999.53
2018-01-04T17:49:07.639Z,99007.38
2018-01-04T17:51:34.036Z,99004.14
2018-01-04T17:54:00.896Z,99008.30
2018-01-04T17:56:31.629Z,99008.93
2018-01-04T17:59:07.745Z,99012.78
2018-01-04T18:01:35.232Z,99012.22
2018-01-04T18:04:02.473Z,99018.11
2018-01-04T18:06:29.217Z,99018.54
2018-01-04T18:08:58.184Z,99018.88
2018-01-04T18:11:24.516Z,99020.19
2018-01-04T18:13:52.899Z,99030.94
2018-01-04T18:16:19.335Z,99031.23
2018-01-04T18:18:51.055Z,99033.27
2018-01-04T18:21:20.675Z,99031.47
2018-01-04T18:23:48.937Z,99036.45
2018-01-04T18:26:15.316Z,99036.89
2018-01-04T18:28:41.768Z,99042.77
2018-01-04T18:31:08.252Z,99041.80
2018-01-04T18:33:34.668Z,99042.02
2018-01-04T18:36:01.487Z,99045.21
2018-01-04T18:38:28.325Z,99042.09
2018-01-04T18:40:55.280Z,99045.16
2018-01-04T18:43:21.868Z,99051.08
2018-01-04T18:45:48.316Z,99053.38
2018-01-04T18:48:14.765Z,99051.38
2018-01-04T18:50:41.169Z,99055.97
2018-01-04T18:53:07.628Z,99051.36
2018-01-04T18:55:34.108Z,99053.91
2018-01-04T18:58:00.581Z,99056.84
2018-01-04T19:00:27.157Z,99059.33
2018-01-04T19:02:53.694Z,99059.36
2018-01-04T19:05:20.175Z,99053.55
2018-01-04T19:07:46.686Z,99061.73
2018-01-04T19:10:13.076Z,99067.55
2018-01-04T19:12:39.480Z,99060.34
2018-01-04T19:15:05.910Z,99068.91
2018-01-04T19:17:32.316Z,99068.91
2018-01-04T19:19:58.898Z,99070.53
2018-01-04T19:22:25.245Z,99077.55
2018-01-04T19:24:51.672Z,99081.00
2018-01-04T19:27:18.123Z,99080.58
2018-01-04T19:29:44.577Z,99083.66
2018-01-04T19:32:10.969Z,99091.52
2018-01-04T19:34:37.391Z,99090.91
2018-01-04T19:37:03.860Z,99092.66
2018-01-04T19:39:30.311Z,99099.02
2018-01-04T19:41:56.748Z,99107.40
2018-01-04T19:44:23.144Z,99103.22
2018-01-04T19:46:50.261Z,99105.52
2018-01-04T19:49:17.064Z,99116.30
2018-01-04T19:51:43.461Z,99114.67
2018-01-04T19:54:09.877Z,99115.77
2018-01-04T19:56:38.348Z,99116.20
2018-01-04T19:59:04.788Z,99115.20
2018-01-04T20:01:31.196Z,99114.34
2018-01-04T20:03:57.619Z,99120.82
2018-01-04T20:06:24.083Z,99118.16
2018-01-04T20:08:50.464Z,99119.06
2018-01-04T20:11:16.888Z,99111.62
2018-01-04T20:13:43.312Z,99121.98
2018-01-04T20:16:13.362Z,99118.73
2018-01-04T20:18:40.020Z,99124.00
2018-01-04T20:21:06.424Z,99124.35
2018-01-04T20:23:32.860Z,99126.98
2018-01-04T20:25:59.410Z,99124.19
2018-01-04T20:28:25.853Z,99124.37
2018-01-04T20:30:52.288Z,99127.91
2018-01-04T20:33:18.720Z,99119.51
2018-01-04T20:35:45.265Z,99123.52
2018-01-04T20:38:11.645Z,99120.98
2018-01-04T20:40:38.089Z,99129.63
2018-01-04T20:43:04.516Z,99133.84
2018-01-04T20:45:31.060Z,99133.79
2018-01-04T20:47:57.520Z,99124.82
2018-01-04T20:50:24.060Z,99129.19
2018-01-04T20:52:50.488Z,99128.11
2018-01-04T20:55:16.895Z,99133.64
2018-01-04T20:57:43.293Z,99135.22
2018-01-04T21:00:09.669Z,99135.38
2018-01-04T21:02:36.137Z,99140.17
2018-01-04T21:05:02.572Z,99136.66
2018-01-04T21:07:28.969Z,99144.33
2018-01-04T21:09:55.407Z,99142.28
2018-01-04T21:12:21.792Z,99140.81
2018-01-04T21:14:48.239Z,99140.41
2018-01-04T21:17:15.343Z,99136.77
2018-01-04T21:19:41.827Z,99140.53
2018-01-04T22:21:13.048Z,99153.88
2018-01-04T22:23:39.393Z,99155.58
2018-01-04T22:26:05.796Z,99152.94
2018-01-04T22:28:32.187Z,99158.44
2018-01-04T22:30:58.569Z,99151.11
2018-01-04T22:33:24.933Z,99158.12
2018-01-04T22:35:51.387Z,99157.44
2018-01-04T22:38:17.811Z,99155.40
2018-01-04T22:40:44.252Z,99158.83
2018-01-04T22:43:10.655Z,99161.48
2018-01-04T22:45:37.023Z,99162.75
2018-01-04T22:48:03.420Z,99156.13
2018-01-04T22:50:29.951Z,99162.95
2018-01-04T22:52:56.344Z,99162.73
2018-01-04T22:55:25.324Z,99156.00
2018-01-04T22:57:52.540Z,99155.13
2018-01-04T23:00:18.964Z,99151.88
2018-01-04T23:02:45.408Z,99156.91
2018-01-04T23:05:11.851Z,99151.22
2018-01-04T23:07:38.287Z,99152.63
2018-01-04T23:10:04.749Z,99149.88
2018-01-04T23:12:31.259Z,99150.04
2018-01-04T23:14:57.727Z,99146.30
2018-01-04T23:17:24.131Z,99149.14
2018-01-04T23:19:50.628Z,99150.84
2018-01-04T23:22:17.227Z,99153.59
2018-01-04T23:24:43.664Z,99155.63
2018-01-04T23:27:10.209Z,99150.75
2018-01-04T23:29:36.625Z,99154.66
2018-01-04T23:32:03.127Z,99158.11
2018-01-04T23:34:29.736Z,99163.36
2018-01-04T23:36:56.193Z,99164.68
2018-01-04T23:39:22.640Z,99166.47
2018-01-04T23:41:49.099Z,99163.12
2018-01-04T23:44:15.507Z,99163.02
2018-01-04T23:46:41.912Z,99162.09
2018-01-04T23:49:08.435Z,99162.72
2018-01-04T23:51:34.807Z,99167.02
2018-01-04T23:54:01.159Z,99166.03
2018-01-04T23:56:27.673Z,99162.29
2018-01-04T23:58:54.072Z,99171.28
